Perkins, Iowa
Current Conditions -  °F | °C
As of 7:15 AM on Friday 28 Nov 2014 (Local Time) from KSHL Reporting Station
Clear Clear  
Wind Chill:   Ceiling: Unl
Heat Index: 19°   Visibility: 10mi
Dew Point: 18°   Wind: 10mph
Humidity: 93%   Direction: 150°SSE
Pressure: 29.84"   Gusts: NA
Location:  43.2144°N, 96.157°W
Report Text: KSHL 281315Z AUTO 15009KT 10SM CLR M07/M08 A2984 RMK AO2
Loading
Personal Weather Stations






























Interactive Weather Map New forecast layout! Learn more

10-Day Weather Forecast

Advertisements
Track Severe Weather on mobile